Foster, OK (73434)

9:30 PM CST on December 10, 2016 (GMT -0600)
Pauls Valley Municipal | | Change Station

Elev 968 ft 34.71 °N, 97.22 °W | Updated 15 minutes ago

Overcast
Overcast
46 °F
Feels Like 40 °F
N
15
Wind Variable Wind from South
Gusts 23 mph

Today
High -- | Low -- °F
--% Chance of Precip.
Yesterday
High -- | Low -- °F
Precip. -- in
Pressure 30.04 in
Visibility 10.0 miles
Clouds Overcast 2800 ft
Windchill 40 °F
Dew Point 37 °F
Humidity 70%
Rainfall 0.00 in
Snow Depth Not available.
7:26 AM 5:19 PM
Waxing Gibbous, 88% visible
METAR KPVJ 110315Z AUTO 17013G20KT 10SM OVC028 08/03 A3004 RMK AO2 T00780027
Pressure 30.04 in
Visibility 10.0 miles
Clouds Overcast 2800 ft
Windchill 40 °F
Dew Point 37 °F
Humidity 70%
Rainfall 0.00 in
Snow Depth Not available.
7:26 AM 5:19 PM
Waxing Gibbous, 88% visible
METAR KPVJ 110315Z AUTO 17013G20KT 10SM OVC028 08/03 A3004 RMK AO2 T00780027

10-Day Weather Forecast

Almanac

Astronomy

Dec. 10, 2016 Rise Set
Actual Time
Civil Twilight
Nautical Twilight
Astronomical Twilight
Moon
Length of Visible Light
Length of Day
Tomorrow will be .
, % of the Moon is Illuminated

Today's Extremes

State Highs State Lows

Community

WunderPhotos

Upload Photos

1,956,702 photos uploaded!

WunderBlog® & News

Nearby

Air Quality

  Air Quality AQ Index Pollutant
Not available.

Snow Depth

Station Depth Elevation

Earthquake Activity

City Distance Mag. Time & Date
Minimum magnitude displayed is 2.5.

Coastal Water Temperatures

Place Temperature

Stations

Nearby Weather Stations

Station Location Temp. Windchill Dew Point Humidity Wind Precip. Elev Updated Type
                   

Watches & Warnings

There are currently no watches in effect.